createdAt,value
2022-07-29T00:00:53.813Z,75.60
2022-07-29T00:03:20.521Z,76.19
2022-07-29T00:05:47.149Z,76.25
2022-07-29T00:08:13.652Z,74.76
2022-07-29T00:10:40.286Z,74.97
2022-07-29T00:13:07.001Z,75.52
2022-07-29T00:15:33.977Z,75.67
2022-07-29T00:18:00.575Z,75.50
2022-07-29T00:20:27.693Z,75.80
2022-07-29T00:22:54.377Z,76.68
2022-07-29T00:25:20.982Z,76.63
2022-07-29T00:27:47.699Z,76.57
2022-07-29T00:30:14.444Z,75.97
2022-07-29T00:32:41.080Z,75.77
2022-07-29T00:35:27.327Z,75.19
2022-07-29T00:37:53.822Z,74.62
2022-07-29T00:40:23.610Z,74.03
2022-07-29T00:42:52.519Z,74.38
2022-07-29T00:45:20.059Z,74.54
2022-07-29T00:47:47.470Z,75.05
2022-07-29T00:50:15.397Z,74.99
2022-07-29T00:52:43.661Z,74.88
2022-07-29T00:55:13.858Z,75.54
2022-07-29T00:57:42.645Z,76.56
2022-07-29T01:00:12.165Z,77.49
2022-07-29T01:02:38.823Z,76.91
2022-07-29T01:05:06.914Z,77.83
2022-07-29T01:07:38.243Z,77.73
2022-07-29T01:10:07.431Z,78.14
2022-07-29T01:12:35.468Z,79.15
2022-07-29T01:15:04.334Z,80.00
2022-07-29T01:17:52.429Z,79.87
2022-07-29T01:20:52.473Z,79.76
2022-07-29T01:23:40.999Z,80.26
2022-07-29T01:26:29.995Z,80.50
2022-07-29T01:29:38.788Z,81.45
2022-07-29T01:32:28.439Z,81.39
2022-07-29T01:35:01.169Z,81.70
2022-07-29T01:37:49.498Z,82.93
2022-07-29T01:40:28.110Z,83.84
2022-07-29T01:42:58.025Z,84.19
2022-07-29T01:45:33.017Z,84.98
2022-07-29T01:48:17.494Z,84.92
2022-07-29T01:50:52.988Z,85.32
2022-07-29T01:53:36.446Z,85.19
2022-07-29T01:56:05.828Z,84.87
2022-07-29T01:58:36.059Z,85.18
2022-07-29T02:01:05.252Z,85.53
2022-07-29T02:03:34.411Z,85.53
2022-07-29T02:06:04.170Z,85.36
2022-07-29T02:08:33.257Z,85.02
2022-07-29T02:11:01.638Z,84.64
2022-07-29T02:13:32.101Z,84.32
2022-07-29T02:16:00.682Z,84.54
2022-07-29T02:18:31.416Z,84.68
2022-07-29T02:21:01.829Z,84.57
2022-07-29T02:23:31.930Z,84.52
2022-07-29T02:26:18.833Z,84.97
2022-07-29T02:28:47.742Z,85.22
2022-07-29T02:31:15.562Z,85.15
2022-07-29T02:33:44.037Z,85.46
2022-07-29T02:36:11.885Z,84.94
2022-07-29T02:38:53.618Z,85.11
2022-07-29T02:41:31.189Z,85.03
2022-07-29T02:44:04.636Z,86.32
2022-07-29T02:46:35.156Z,86.11
2022-07-29T02:49:17.889Z,86.21
2022-07-29T02:51:50.417Z,85.97
2022-07-29T02:54:32.115Z,86.48
2022-07-29T02:57:04.334Z,86.82
2022-07-29T02:59:35.227Z,86.85
2022-07-29T03:02:03.521Z,87.18
2022-07-29T03:04:33.472Z,87.46
2022-07-29T03:07:01.784Z,88.30
2022-07-29T03:09:29.124Z,87.82
2022-07-29T03:11:58.076Z,88.44
2022-07-29T03:14:25.362Z,88.74
2022-07-29T03:16:53.107Z,88.99
2022-07-29T03:19:21.480Z,89.06
2022-07-29T03:21:48.263Z,89.55
2022-07-29T03:24:33.326Z,89.39
2022-07-29T03:27:00.577Z,89.65
2022-07-29T03:29:34.034Z,89.00
2022-07-29T03:32:03.379Z,89.23
2022-07-29T03:34:31.062Z,88.58
2022-07-29T03:36:57.710Z,88.82
2022-07-29T03:39:28.579Z,88.74
2022-07-29T03:41:59.448Z,87.28
2022-07-29T03:44:28.311Z,87.35
2022-07-29T03:46:59.177Z,85.10
2022-07-29T03:49:27.776Z,83.92
2022-07-29T03:51:55.025Z,81.36
2022-07-29T03:54:22.031Z,78.86
2022-07-29T03:56:53.200Z,76.16
2022-07-29T03:59:22.582Z,76.36
2022-07-29T04:01:49.928Z,75.19
2022-07-29T04:04:16.939Z,73.67
2022-07-29T04:06:46.209Z,72.91
2022-07-29T04:09:15.444Z,72.37
2022-07-29T04:11:57.039Z,70.29
2022-07-29T04:14:30.276Z,68.76
2022-07-29T04:16:56.970Z,67.93
2022-07-29T04:19:23.795Z,66.17
2022-07-29T04:21:50.572Z,66.16
2022-07-29T04:24:17.836Z,63.21
2022-07-29T04:26:46.126Z,61.53
2022-07-29T04:29:12.990Z,59.83
2022-07-29T04:31:39.555Z,59.81
2022-07-29T04:34:06.299Z,62.24
2022-07-29T04:36:33.018Z,62.79
2022-07-29T04:39:01.969Z,62.94
2022-07-29T04:41:33.016Z,59.78
2022-07-29T04:44:02.301Z,58.78
2022-07-29T04:46:29.065Z,58.22
2022-07-29T04:48:55.817Z,54.98
2022-07-29T04:51:22.500Z,52.48
2022-07-29T04:53:49.106Z,50.23
2022-07-29T04:56:15.640Z,50.23
2022-07-29T04:58:42.177Z,52.64
2022-07-29T05:01:08.764Z,51.88
2022-07-29T05:03:35.349Z,52.19
2022-07-29T05:06:02.016Z,54.45
2022-07-29T05:08:28.519Z,57.55
2022-07-29T05:10:55.138Z,58.91
2022-07-29T05:13:21.681Z,59.53
2022-07-29T05:15:49.887Z,59.72
2022-07-29T05:32:30.882Z,64.13
2022-07-29T05:34:57.981Z,64.01
2022-07-29T05:37:24.829Z,64.53
2022-07-29T05:39:56.854Z,65.50
2022-07-29T05:42:24.846Z,65.92
2022-07-29T05:44:52.014Z,66.00
2022-07-29T05:47:18.793Z,66.45
2022-07-29T05:49:45.364Z,66.08
2022-07-29T05:52:12.066Z,66.17
2022-07-29T05:54:38.710Z,63.30
2022-07-29T05:57:06.473Z,62.30
2022-07-29T05:59:39.430Z,60.26
2022-07-29T06:02:09.069Z,57.23
2022-07-29T06:04:35.782Z,55.60
2022-07-29T06:07:02.816Z,57.04
2022-07-29T06:09:29.959Z,57.34
2022-07-29T06:11:58.960Z,57.03
2022-07-29T06:14:28.883Z,55.09
2022-07-29T06:16:56.258Z,54.83
2022-07-29T06:19:23.069Z,53.38
2022-07-29T06:21:51.250Z,53.00
2022-07-29T06:24:18.754Z,51.74
2022-07-29T06:26:45.827Z,52.28
2022-07-29T06:29:12.729Z,52.70
2022-07-29T06:31:40.181Z,52.06
2022-07-29T06:34:07.027Z,51.99
2022-07-29T06:36:37.891Z,51.68
2022-07-29T06:39:07.986Z,51.52
2022-07-29T06:41:34.945Z,50.72
2022-07-29T06:44:01.495Z,50.13
2022-07-29T06:46:28.731Z,50.30
2022-07-29T06:48:55.583Z,51.50
2022-07-29T06:51:24.106Z,51.52
2022-07-29T06:53:59.322Z,51.91
2022-07-29T06:56:30.847Z,51.81
2022-07-29T06:58:57.460Z,52.35
2022-07-29T07:01:24.078Z,51.58
2022-07-29T07:03:50.754Z,49.17
2022-07-29T07:06:17.741Z,49.63
2022-07-29T07:08:44.714Z,49.38
2022-07-29T07:11:13.132Z,50.19
2022-07-29T07:13:39.774Z,50.85
2022-07-29T07:16:06.828Z,51.11
2022-07-29T07:18:33.486Z,50.11
2022-07-29T07:21:00.047Z,49.00
2022-07-29T07:23:26.617Z,49.09
2022-07-29T07:25:53.442Z,48.43
2022-07-29T07:28:24.513Z,48.80
2022-07-29T07:30:53.169Z,49.19
2022-07-29T07:33:20.865Z,47.85
2022-07-29T07:35:47.758Z,49.21
2022-07-29T07:38:14.313Z,48.34
2022-07-29T07:40:42.860Z,48.59
2022-07-29T07:43:10.567Z,48.88
2022-07-29T07:45:38.451Z,49.30
2022-07-29T07:48:05.807Z,50.60
2022-07-29T07:50:33.790Z,50.72
2022-07-29T07:53:02.842Z,51.25
2022-07-29T07:55:30.714Z,51.50
2022-07-29T07:58:16.962Z,51.69
2022-07-29T08:00:43.598Z,50.70
2022-07-29T08:03:16.798Z,50.59
2022-07-29T08:05:44.614Z,49.53
2022-07-29T08:08:12.263Z,49.49
2022-07-29T08:10:54.096Z,48.50
2022-07-29T08:13:22.207Z,48.21
2022-07-29T08:15:58.487Z,47.85
2022-07-29T08:18:26.292Z,47.96
2022-07-29T08:20:52.887Z,47.25
2022-07-29T08:23:20.163Z,47.05
2022-07-29T08:25:50.045Z,46.04
2022-07-29T08:28:18.222Z,46.74
2022-07-29T08:30:44.993Z,45.18
2022-07-29T08:33:13.191Z,43.90
2022-07-29T08:35:39.824Z,45.20
2022-07-29T08:38:06.707Z,45.65
2022-07-29T08:40:33.451Z,46.40
2022-07-29T08:43:06.477Z,45.54
2022-07-29T08:45:44.795Z,45.85
2022-07-29T08:48:16.176Z,44.74
2022-07-29T08:50:46.278Z,44.03
2022-07-29T08:53:15.559Z,43.45
2022-07-29T08:55:49.097Z,42.99
2022-07-29T08:58:16.384Z,43.72
2022-07-29T09:00:46.925Z,44.24
2022-07-29T09:03:19.225Z,44.62
2022-07-29T09:05:49.100Z,44.57
2022-07-29T09:08:17.567Z,44.32
2022-07-29T09:10:45.286Z,44.82
2022-07-29T09:13:12.040Z,45.42
2022-07-29T09:15:38.518Z,45.44
2022-07-29T09:18:05.031Z,45.44
2022-07-29T09:20:51.518Z,45.30
2022-07-29T09:23:24.143Z,45.51
2022-07-29T09:25:51.596Z,46.13
2022-07-29T09:28:18.846Z,46.80
2022-07-29T09:30:56.492Z,46.44
2022-07-29T09:33:24.165Z,45.84
2022-07-29T09:36:08.086Z,45.73
2022-07-29T09:38:36.233Z,46.01
2022-07-29T09:41:06.515Z,46.05
2022-07-29T09:43:34.734Z,45.68
2022-07-29T09:46:14.356Z,46.42
2022-07-29T09:48:41.048Z,47.13
2022-07-29T09:51:25.489Z,46.23
2022-07-29T09:53:55.331Z,46.00
2022-07-29T09:56:39.237Z,46.54
2022-07-29T09:59:10.170Z,47.48
2022-07-29T10:01:37.029Z,46.50
2022-07-29T10:04:03.802Z,45.42
2022-07-29T10:06:30.371Z,46.25
2022-07-29T10:09:09.207Z,46.01
2022-07-29T10:11:49.158Z,46.22
2022-07-29T10:14:22.898Z,45.32
2022-07-29T10:16:49.457Z,44.89
2022-07-29T10:19:16.317Z,45.31
2022-07-29T10:21:45.072Z,45.71
2022-07-29T10:24:14.844Z,45.26
2022-07-29T10:26:43.932Z,44.50
2022-07-29T10:29:10.625Z,45.22
2022-07-29T10:31:50.946Z,45.22
2022-07-29T10:34:32.702Z,46.33
2022-07-29T10:37:20.585Z,44.73
2022-07-29T10:40:35.838Z,44.14
2022-07-29T10:43:23.226Z,43.73
2022-07-29T10:45:58.102Z,43.01
2022-07-29T10:48:25.139Z,43.33
2022-07-29T10:50:56.334Z,43.48
2022-07-29T10:53:46.278Z,43.33
2022-07-29T10:56:31.935Z,43.66
2022-07-29T10:59:21.504Z,44.33
2022-07-29T11:01:59.875Z,43.71
2022-07-29T11:04:46.989Z,43.23
2022-07-29T11:07:15.246Z,42.45
2022-07-29T11:09:42.367Z,43.14
2022-07-29T11:12:39.268Z,44.74
2022-07-29T11:15:18.243Z,43.57
2022-07-29T11:18:01.620Z,44.03
2022-07-29T11:20:49.851Z,42.76
2022-07-29T11:23:20.813Z,43.13
2022-07-29T11:26:23.425Z,42.38
2022-07-29T11:29:04.266Z,42.46
2022-07-29T11:31:45.416Z,42.32
2022-07-29T11:34:28.205Z,44.18
2022-07-29T11:37:14.455Z,44.13
2022-07-29T11:39:43.500Z,45.22
2022-07-29T11:42:32.347Z,44.54
2022-07-29T11:45:43.489Z,45.31
2022-07-29T11:48:29.316Z,45.10
2022-07-29T11:50:51.860Z,44.98
2022-07-29T11:53:18.590Z,44.02
2022-07-29T11:55:51.331Z,44.36
2022-07-29T11:58:25.126Z,44.21
2022-07-29T12:00:53.316Z,44.57
2022-07-29T12:03:33.427Z,44.59
2022-07-29T12:06:02.556Z,45.14
2022-07-29T12:08:29.268Z,44.51
2022-07-29T12:10:55.937Z,45.02
2022-07-29T12:13:22.931Z,44.87
2022-07-29T12:16:04.179Z,45.29
2022-07-29T12:18:30.825Z,45.12
2022-07-29T12:20:59.145Z,44.74
2022-07-29T12:23:34.293Z,45.10
2022-07-29T12:26:07.418Z,44.87
2022-07-29T12:28:40.101Z,45.26
2022-07-29T12:31:08.254Z,43.05
2022-07-29T12:33:36.153Z,44.23
2022-07-29T12:36:10.306Z,44.93
2022-07-29T12:38:41.236Z,45.65
2022-07-29T12:41:08.015Z,44.53
2022-07-29T12:43:34.612Z,44.47
2022-07-29T12:46:14.359Z,44.83
2022-07-29T12:48:43.653Z,44.40
2022-07-29T12:51:13.426Z,45.71
2022-07-29T12:53:40.462Z,44.37
2022-07-29T12:56:45.365Z,43.94
2022-07-29T12:59:16.751Z,44.46
2022-07-29T13:01:44.000Z,44.60
2022-07-29T13:04:10.775Z,44.89
2022-07-29T13:06:45.731Z,43.83
2022-07-29T13:09:23.539Z,44.19
2022-07-29T13:11:54.377Z,44.50
2022-07-29T13:14:35.246Z,44.44
2022-07-29T13:17:11.126Z,45.39
2022-07-29T13:19:44.704Z,44.42
2022-07-29T13:22:13.568Z,44.50
2022-07-29T13:24:58.033Z,44.45
2022-07-29T13:27:27.531Z,44.17
2022-07-29T13:29:57.559Z,45.30
2022-07-29T13:32:27.825Z,44.52
2022-07-29T13:34:57.398Z,44.22
2022-07-29T13:37:24.017Z,45.41
2022-07-29T13:39:52.697Z,44.22
2022-07-29T13:42:19.962Z,44.69
2022-07-29T13:44:46.671Z,43.88
2022-07-29T13:47:13.960Z,44.81
2022-07-29T13:49:40.797Z,45.80
2022-07-29T13:52:08.460Z,45.46
2022-07-29T13:54:42.030Z,44.96
2022-07-29T13:57:11.730Z,44.54
2022-07-29T13:59:39.131Z,44.76
2022-07-29T14:02:06.534Z,43.72
2022-07-29T14:04:33.647Z,44.39
2022-07-29T14:07:00.360Z,44.70
2022-07-29T14:09:41.165Z,45.32
2022-07-29T14:12:09.026Z,44.86
2022-07-29T14:14:37.490Z,45.65
2022-07-29T14:17:04.645Z,44.71
2022-07-29T14:19:33.049Z,45.61
2022-07-29T14:22:00.099Z,45.83
2022-07-29T14:24:27.029Z,46.74
2022-07-29T14:26:53.720Z,47.54
2022-07-29T14:29:20.341Z,47.25
2022-07-29T14:31:47.007Z,47.45
2022-07-29T14:34:13.684Z,47.00
2022-07-29T14:36:40.333Z,46.05
2022-07-29T14:39:06.853Z,45.78
2022-07-29T14:41:33.795Z,45.41
2022-07-29T14:44:03.128Z,46.37
2022-07-29T14:46:29.853Z,45.86
2022-07-29T14:48:56.548Z,45.27
2022-07-29T14:51:23.141Z,45.16
2022-07-29T14:53:49.718Z,45.45
2022-07-29T14:56:36.006Z,45.33
2022-07-29T14:59:02.901Z,45.60
2022-07-29T15:01:30.131Z,46.66
2022-07-29T15:03:59.677Z,46.94
2022-07-29T15:06:27.422Z,47.67
2022-07-29T15:08:54.030Z,46.99
2022-07-29T15:11:21.089Z,47.75
2022-07-29T15:13:47.790Z,48.49
2022-07-29T15:16:14.294Z,48.92
2022-07-29T15:18:40.977Z,49.63
2022-07-29T15:21:08.541Z,48.97
2022-07-29T15:23:38.017Z,49.33
2022-07-29T15:26:05.560Z,49.84
2022-07-29T15:28:32.163Z,49.87
2022-07-29T15:30:59.291Z,49.92
2022-07-29T15:33:26.662Z,48.72
2022-07-29T15:35:54.159Z,48.24
2022-07-29T15:38:20.730Z,48.26
2022-07-29T15:40:55.824Z,48.22
2022-07-29T15:43:22.814Z,48.84
2022-07-29T15:46:08.167Z,49.44
2022-07-29T15:48:39.049Z,48.45
2022-07-29T15:51:05.904Z,48.98
2022-07-29T15:53:32.499Z,48.85
2022-07-29T15:56:02.168Z,48.75
2022-07-29T15:58:28.978Z,49.92
2022-07-29T16:00:55.700Z,50.68
2022-07-29T16:03:22.920Z,51.05
2022-07-29T16:05:49.495Z,51.31
2022-07-29T16:08:16.012Z,50.68
2022-07-29T16:10:42.552Z,50.22
2022-07-29T16:13:09.194Z,50.53
2022-07-29T16:15:35.771Z,50.36
2022-07-29T16:18:02.315Z,50.18
2022-07-29T16:20:29.661Z,50.88
2022-07-29T16:22:56.188Z,50.46
2022-07-29T16:25:38.414Z,51.02
2022-07-29T16:28:09.511Z,50.43
2022-07-29T16:30:36.430Z,50.85
2022-07-29T16:33:07.790Z,51.36
2022-07-29T16:35:39.763Z,51.39
2022-07-29T16:38:06.666Z,51.45
2022-07-29T16:40:33.404Z,51.71
2022-07-29T16:43:00.004Z,52.26
2022-07-29T16:45:26.788Z,52.15
2022-07-29T16:48:00.956Z,52.00
2022-07-29T16:50:28.838Z,51.87
2022-07-29T16:52:56.081Z,51.88
2022-07-29T16:55:22.659Z,51.73
2022-07-29T16:57:52.598Z,51.85
2022-07-29T17:00:19.966Z,52.23
2022-07-29T17:02:46.569Z,52.81
2022-07-29T17:05:13.125Z,52.87
2022-07-29T17:07:40.843Z,52.75
2022-07-29T17:10:08.433Z,53.03
2022-07-29T17:12:36.532Z,52.96
2022-07-29T17:15:04.693Z,53.20
2022-07-29T17:17:39.468Z,53.76
2022-07-29T17:20:18.110Z,53.92
2022-07-29T17:22:44.646Z,54.02
2022-07-29T17:25:11.736Z,54.66
2022-07-29T17:27:47.414Z,54.96
2022-07-29T17:30:14.011Z,54.58
2022-07-29T17:32:40.553Z,55.29
2022-07-29T17:35:28.192Z,55.68
2022-07-29T17:37:54.969Z,56.05
2022-07-29T17:40:21.806Z,56.01
2022-07-29T17:42:48.343Z,56.58
2022-07-29T17:45:14.896Z,59.54
2022-07-29T17:47:41.875Z,60.67
2022-07-29T17:50:08.668Z,61.56
2022-07-29T17:52:35.234Z,62.02
2022-07-29T17:55:02.536Z,62.57
2022-07-29T17:57:29.107Z,63.10
2022-07-29T17:59:55.610Z,63.40
2022-07-29T18:02:22.275Z,63.83
2022-07-29T18:04:51.682Z,63.94
2022-07-29T18:07:18.615Z,64.19
2022-07-29T18:09:45.310Z,64.65
2022-07-29T18:12:11.840Z,65.01
2022-07-29T18:14:38.653Z,65.35
2022-07-29T18:17:05.161Z,65.21
2022-07-29T18:19:31.696Z,65.43
2022-07-29T18:22:03.172Z,65.67
2022-07-29T18:24:31.909Z,65.98
2022-07-29T18:26:58.612Z,66.27
2022-07-29T18:29:25.643Z,66.31
2022-07-29T18:31:52.138Z,66.64
2022-07-29T18:34:18.667Z,66.48
2022-07-29T18:36:45.926Z,66.79
2022-07-29T18:39:20.047Z,66.67
2022-07-29T18:41:50.381Z,67.22
2022-07-29T18:44:18.257Z,67.40
2022-07-29T18:46:47.924Z,67.89
2022-07-29T18:49:23.291Z,68.42
2022-07-29T18:51:50.623Z,69.14
2022-07-29T18:54:17.645Z,69.30
2022-07-29T18:56:45.806Z,69.46
2022-07-29T18:59:16.749Z,69.55
2022-07-29T19:01:44.282Z,69.79
2022-07-29T19:04:10.988Z,70.18
2022-07-29T19:06:37.522Z,70.82
2022-07-29T19:09:04.355Z,71.22
2022-07-29T19:11:31.031Z,71.65
2022-07-29T19:13:57.694Z,71.96
2022-07-29T19:16:24.275Z,72.63
2022-07-29T19:18:50.877Z,73.43
2022-07-29T19:21:17.527Z,74.17
2022-07-29T19:24:05.176Z,75.12
2022-07-29T19:26:30.906Z,76.13
2022-07-29T19:28:57.538Z,76.86
2022-07-29T19:31:24.129Z,77.39
2022-07-29T19:33:50.913Z,77.89
2022-07-29T19:36:17.440Z,78.53
2022-07-29T19:38:43.931Z,78.81
2022-07-29T19:41:10.499Z,79.32
2022-07-29T19:43:49.653Z,79.87
2022-07-29T19:46:18.884Z,80.58
2022-07-29T19:48:45.687Z,81.09
2022-07-29T19:51:12.301Z,81.50
2022-07-29T19:53:38.976Z,82.31
2022-07-29T19:56:05.601Z,82.45
2022-07-29T19:58:35.880Z,82.85
2022-07-29T20:01:02.777Z,83.02
2022-07-29T20:03:39.712Z,84.00
2022-07-29T20:06:06.776Z,84.80
2022-07-29T20:08:33.608Z,85.23
2022-07-29T20:11:00.110Z,85.58
2022-07-29T20:13:26.667Z,86.30
2022-07-29T20:15:53.443Z,86.26
2022-07-29T20:18:20.028Z,86.59
2022-07-29T20:20:48.279Z,87.31
2022-07-29T20:23:16.399Z,87.89
2022-07-29T20:25:42.946Z,88.16
2022-07-29T20:28:09.759Z,89.37
2022-07-29T20:30:38.542Z,89.87
2022-07-29T20:33:05.817Z,90.68
2022-07-29T20:35:32.660Z,90.68
2022-07-29T20:38:00.437Z,90.73
2022-07-29T20:40:27.821Z,90.59
2022-07-29T20:42:55.226Z,90.60
2022-07-29T20:45:23.469Z,90.94
2022-07-29T20:47:51.803Z,91.59
2022-07-29T20:50:23.729Z,90.75
2022-07-29T20:52:51.087Z,91.06
2022-07-29T20:55:17.724Z,91.88
2022-07-29T20:57:45.761Z,92.21
2022-07-29T21:00:12.682Z,92.10
2022-07-29T21:02:39.485Z,92.14
2022-07-29T21:05:06.505Z,92.42
2022-07-29T21:07:34.235Z,92.64
2022-07-29T21:10:00.812Z,92.93
2022-07-29T21:12:29.404Z,93.43
2022-07-29T21:14:56.019Z,93.06
2022-07-29T21:17:22.928Z,92.30
2022-07-29T21:19:52.641Z,92.20
2022-07-29T21:22:23.323Z,92.21
2022-07-29T21:24:50.037Z,92.85
2022-07-29T21:27:38.101Z,93.83
2022-07-29T21:30:07.181Z,94.88
2022-07-29T21:32:33.911Z,95.13
2022-07-29T21:35:00.836Z,95.96
2022-07-29T21:37:28.078Z,96.70
2022-07-29T21:39:54.800Z,97.68
2022-07-29T21:42:21.625Z,97.85
2022-07-29T21:44:48.232Z,97.88
2022-07-29T21:47:14.807Z,98.07
2022-07-29T21:49:42.776Z,98.90
2022-07-29T21:52:09.400Z,98.77
2022-07-29T21:54:36.487Z,98.85
2022-07-29T21:57:03.876Z,98.18
2022-07-29T21:59:31.582Z,97.87
2022-07-29T22:02:01.077Z,98.31
2022-07-29T22:04:31.715Z,97.72
2022-07-29T22:07:00.971Z,95.74
2022-07-29T22:09:28.358Z,93.65
2022-07-29T22:11:56.323Z,92.07
2022-07-29T22:14:23.102Z,91.59
2022-07-29T22:16:49.820Z,91.44
2022-07-29T22:19:16.527Z,91.09
2022-07-29T22:21:43.276Z,91.56
2022-07-29T22:24:12.503Z,91.14
2022-07-29T22:26:39.156Z,91.46
2022-07-29T22:29:06.507Z,92.34
2022-07-29T22:31:33.081Z,91.92
2022-07-29T22:33:59.605Z,91.27
2022-07-29T22:36:26.346Z,90.29
2022-07-29T22:38:53.011Z,89.59
2022-07-29T22:41:19.590Z,89.04
2022-07-29T22:43:46.275Z,89.87
2022-07-29T22:46:12.912Z,89.54
2022-07-29T22:48:39.569Z,87.87
2022-07-29T22:51:07.162Z,87.19
2022-07-29T22:53:33.750Z,86.09
2022-07-29T22:56:00.304Z,85.33
2022-07-29T22:58:26.960Z,84.73
2022-07-29T23:00:53.901Z,84.41
2022-07-29T23:03:21.127Z,83.47
2022-07-29T23:05:47.826Z,83.54
2022-07-29T23:08:14.610Z,82.48
2022-07-29T23:10:41.162Z,82.08
2022-07-29T23:13:07.660Z,82.05
2022-07-29T23:15:34.194Z,81.96
2022-07-29T23:18:00.979Z,82.11
2022-07-29T23:20:27.713Z,81.83
2022-07-29T23:22:54.416Z,81.13
2022-07-29T23:25:21.282Z,81.38
2022-07-29T23:27:47.860Z,81.40
2022-07-29T23:30:14.371Z,81.10
2022-07-29T23:32:40.954Z,81.36
2022-07-29T23:35:08.357Z,81.36
2022-07-29T23:37:35.054Z,81.39
2022-07-29T23:40:01.591Z,81.26
2022-07-29T23:42:28.092Z,81.64
2022-07-29T23:44:54.685Z,81.73
2022-07-29T23:47:23.447Z,81.40
2022-07-29T23:49:50.097Z,81.36
2022-07-29T23:52:17.501Z,81.57
2022-07-29T23:54:44.184Z,81.40
2022-07-29T23:57:10.718Z,81.51
2022-07-29T23:59:37.396Z,81.12
